createdAt,value
2022-08-20T00:02:10.041Z,8.00
2022-08-20T00:04:39.455Z,8.63
2022-08-20T00:07:07.027Z,8.23
2022-08-20T00:09:36.669Z,7.82
2022-08-20T00:12:05.747Z,8.15
2022-08-20T00:14:33.983Z,7.32
2022-08-20T00:17:02.397Z,7.32
2022-08-20T00:19:29.598Z,7.38
2022-08-20T00:21:58.421Z,8.27
2022-08-20T00:24:26.126Z,7.47
2022-08-20T00:26:53.203Z,8.27
2022-08-20T00:29:20.680Z,7.47
2022-08-20T00:31:50.604Z,8.20
2022-08-20T00:34:17.700Z,8.20
2022-08-20T00:36:44.614Z,7.85
2022-08-20T00:39:11.670Z,7.78
2022-08-20T00:41:38.606Z,7.55
2022-08-20T00:44:22.060Z,7.95
2022-08-20T00:46:50.386Z,7.68
2022-08-20T00:49:29.761Z,7.45
2022-08-20T00:52:05.562Z,9.00
2022-08-20T00:54:43.912Z,8.27
2022-08-20T00:57:21.729Z,7.97
2022-08-20T00:59:51.735Z,9.07
2022-08-20T01:02:21.481Z,8.75
2022-08-20T01:04:54.939Z,8.77
2022-08-20T01:07:30.300Z,9.80
2022-08-20T01:09:58.806Z,9.15
2022-08-20T01:12:29.055Z,9.43
2022-08-20T01:14:58.616Z,9.60
2022-08-20T01:17:29.125Z,11.55
2022-08-20T01:20:04.538Z,12.43
2022-08-20T01:23:14.658Z,12.90
2022-08-20T01:26:00.427Z,13.45
2022-08-20T01:28:36.128Z,14.35
2022-08-20T01:31:08.995Z,14.93
2022-08-20T01:33:36.620Z,15.50
2022-08-20T01:36:05.101Z,15.43
2022-08-20T01:38:32.908Z,15.13
2022-08-20T01:41:33.611Z,14.68
2022-08-20T01:44:00.583Z,15.23
2022-08-20T01:46:32.858Z,15.60
2022-08-20T01:49:28.432Z,16.85
2022-08-20T01:51:59.550Z,18.77
2022-08-20T01:54:27.254Z,19.95
2022-08-20T01:57:03.272Z,18.77
2022-08-20T01:59:31.418Z,18.60
2022-08-20T02:01:59.760Z,20.30
2022-08-20T02:04:27.244Z,20.75
2022-08-20T02:06:59.388Z,21.02
2022-08-20T02:09:32.192Z,22.35
2022-08-20T02:11:59.896Z,23.73
2022-08-20T02:14:27.894Z,24.98
2022-08-20T02:16:55.593Z,25.75
2022-08-20T02:19:34.575Z,27.75
2022-08-20T02:22:08.996Z,26.42
2022-08-20T02:24:35.868Z,26.40
2022-08-20T02:27:03.005Z,28.23
2022-08-20T02:29:29.889Z,27.70
2022-08-20T02:32:24.927Z,28.02
2022-08-20T02:34:44.096Z,28.25
2022-08-20T02:37:14.654Z,27.02
2022-08-20T02:39:41.700Z,28.00
2022-08-20T02:42:09.458Z,27.70
2022-08-20T02:44:36.361Z,27.00
2022-08-20T02:47:03.412Z,27.95
2022-08-20T02:49:30.443Z,25.17
2022-08-20T02:51:57.344Z,27.77
2022-08-20T02:54:24.602Z,27.20
2022-08-20T02:56:52.326Z,27.75
2022-08-20T02:59:19.807Z,28.38
2022-08-20T03:02:00.545Z,27.08
2022-08-20T03:04:30.049Z,27.17
2022-08-20T03:06:57.886Z,28.35
2022-08-20T03:09:25.151Z,28.08
2022-08-20T03:11:52.355Z,30.65
2022-08-20T03:14:19.696Z,28.70
2022-08-20T03:16:46.593Z,29.17
2022-08-20T03:19:13.976Z,30.00
2022-08-20T03:21:41.511Z,30.20
2022-08-20T03:24:08.804Z,28.33
2022-08-20T03:26:35.821Z,28.17
2022-08-20T03:29:02.836Z,28.55
2022-08-20T03:31:29.822Z,25.75
2022-08-20T03:33:56.779Z,25.13
2022-08-20T03:36:28.551Z,26.45
2022-08-20T03:39:01.313Z,28.02
2022-08-20T03:41:29.180Z,27.08
2022-08-20T03:43:56.246Z,26.25
2022-08-20T03:46:24.071Z,27.05
2022-08-20T03:48:59.633Z,27.70
2022-08-20T03:51:34.382Z,27.10
2022-08-20T03:54:19.081Z,27.73
2022-08-20T03:56:46.373Z,27.98
2022-08-20T03:59:13.215Z,26.50
2022-08-20T04:01:45.285Z,29.42
2022-08-20T04:04:13.654Z,28.85
2022-08-20T04:06:41.378Z,31.30
2022-08-20T04:09:11.732Z,31.40
2022-08-20T04:11:39.877Z,30.45
2022-08-20T04:14:06.768Z,31.85
2022-08-20T04:16:34.345Z,29.52
2022-08-20T04:19:03.681Z,29.45
2022-08-20T04:21:33.118Z,30.33
2022-08-20T04:24:01.601Z,29.17
2022-08-20T04:26:28.637Z,29.95
2022-08-20T04:28:55.904Z,31.60
2022-08-20T04:31:33.544Z,32.17
2022-08-20T04:34:05.019Z,32.15
2022-08-20T04:36:31.917Z,32.88
2022-08-20T04:38:58.875Z,32.22
2022-08-20T04:41:25.709Z,29.83
2022-08-20T04:43:54.603Z,31.23
2022-08-20T04:46:23.927Z,31.50
2022-08-20T04:48:51.095Z,31.88
2022-08-20T04:51:18.777Z,30.80
2022-08-20T04:53:53.359Z,28.63
2022-08-20T04:56:26.051Z,31.17
2022-08-20T04:58:55.875Z,29.75
2022-08-20T05:01:26.408Z,29.85
2022-08-20T05:03:57.262Z,31.92
2022-08-20T05:06:29.255Z,31.38
2022-08-20T05:08:58.161Z,29.77
2022-08-20T05:11:34.024Z,29.52
2022-08-20T05:14:05.354Z,28.88
2022-08-20T05:16:37.940Z,30.10
2022-08-20T05:19:06.421Z,27.45
2022-08-20T05:21:33.268Z,27.90
2022-08-20T05:24:00.441Z,28.63
2022-08-20T05:26:27.420Z,26.70
2022-08-20T05:28:58.726Z,26.85
2022-08-20T05:31:31.777Z,26.88
2022-08-20T05:34:10.416Z,26.00
2022-08-20T05:36:46.905Z,26.20
2022-08-20T05:39:16.431Z,25.02
2022-08-20T05:41:43.283Z,23.63
2022-08-20T05:44:13.472Z,24.23
2022-08-20T05:46:43.541Z,22.80
2022-08-20T05:49:21.613Z,24.15
2022-08-20T05:51:51.061Z,24.20
2022-08-20T05:54:17.965Z,24.23
2022-08-20T05:56:44.923Z,22.73
2022-08-20T05:59:14.116Z,24.60
2022-08-20T06:01:42.354Z,23.50
2022-08-20T06:04:28.082Z,23.77
2022-08-20T06:07:03.604Z,23.15
2022-08-20T06:09:32.611Z,22.50
2022-08-20T06:12:01.684Z,25.52
2022-08-20T06:14:28.717Z,23.58
2022-08-20T06:17:01.669Z,24.50
2022-08-20T06:19:32.551Z,24.83
2022-08-20T06:22:00.945Z,23.48
2022-08-20T06:24:27.861Z,24.63
2022-08-20T06:27:00.127Z,23.38
2022-08-20T06:29:28.260Z,24.50
2022-08-20T06:31:56.137Z,26.48
2022-08-20T06:34:24.425Z,25.90
2022-08-20T06:36:51.364Z,24.60
2022-08-20T06:39:18.308Z,24.75
2022-08-20T06:41:45.647Z,24.80
2022-08-20T06:44:12.595Z,24.63
2022-08-20T06:46:39.457Z,23.92
2022-08-20T06:49:07.520Z,23.58
2022-08-20T06:51:35.113Z,24.35
2022-08-20T06:54:02.067Z,23.80
2022-08-20T06:56:29.014Z,24.85
2022-08-20T06:58:56.087Z,23.05
2022-08-20T07:01:23.155Z,23.17
2022-08-20T07:03:55.495Z,22.50
2022-08-20T07:06:25.619Z,22.97
2022-08-20T07:08:53.924Z,22.75
2022-08-20T07:11:26.566Z,23.08
2022-08-20T07:13:56.845Z,20.08
2022-08-20T07:16:24.295Z,21.60
2022-08-20T07:18:51.189Z,22.48
2022-08-20T07:21:18.347Z,20.98
2022-08-20T07:23:45.471Z,20.17
2022-08-20T07:26:13.352Z,21.77
2022-08-20T07:28:40.957Z,20.95
2022-08-20T07:31:26.167Z,22.48
2022-08-20T07:33:54.116Z,23.77
2022-08-20T07:36:21.127Z,23.38
2022-08-20T07:38:51.096Z,22.08
2022-08-20T07:41:19.461Z,20.42
2022-08-20T07:43:47.311Z,19.05
2022-08-20T07:46:17.765Z,17.75
2022-08-20T07:48:50.493Z,16.58
2022-08-20T07:51:22.451Z,16.08
2022-08-20T07:53:50.959Z,16.88
2022-08-20T07:56:21.680Z,15.85
2022-08-20T07:58:53.504Z,15.15
2022-08-20T08:01:26.284Z,15.55
2022-08-20T08:03:53.771Z,14.73
2022-08-20T08:06:29.775Z,13.45
2022-08-20T08:09:05.873Z,12.73
2022-08-20T08:11:35.559Z,14.02
2022-08-20T08:14:05.404Z,13.13
2022-08-20T08:16:34.585Z,11.80
2022-08-20T08:19:02.221Z,11.27
2022-08-20T08:21:30.763Z,11.77
2022-08-20T08:23:58.370Z,10.15
2022-08-20T08:26:26.407Z,8.95
2022-08-20T08:28:53.240Z,9.02
2022-08-20T08:31:20.185Z,10.02
2022-08-20T08:33:47.840Z,8.85
2022-08-20T08:36:15.982Z,10.80
2022-08-20T08:38:45.125Z,11.20
2022-08-20T08:41:21.307Z,16.15
2022-08-20T08:43:53.451Z,23.95
2022-08-20T08:46:25.609Z,16.25
2022-08-20T08:48:57.338Z,12.45
2022-08-20T08:51:50.548Z,11.48
2022-08-20T08:54:24.855Z,10.63
2022-08-20T08:56:53.168Z,11.52
2022-08-20T08:59:22.422Z,12.30
2022-08-20T09:02:00.317Z,12.07
2022-08-20T09:04:36.201Z,11.40
2022-08-20T09:07:05.307Z,11.52
2022-08-20T09:09:37.862Z,11.77
2022-08-20T09:14:35.034Z,11.90
2022-08-20T09:17:02.380Z,12.38
2022-08-20T09:19:29.287Z,11.90
2022-08-20T09:21:56.177Z,11.30
2022-08-20T09:24:23.088Z,11.55
2022-08-20T09:26:50.017Z,11.50
2022-08-20T09:29:17.532Z,12.07
2022-08-20T09:31:44.407Z,11.35
2022-08-20T09:34:12.138Z,11.30
2022-08-20T09:36:38.983Z,10.75
2022-08-20T09:39:05.887Z,10.43
2022-08-20T09:41:33.536Z,11.40
2022-08-20T09:44:01.939Z,9.25
2022-08-20T09:46:28.860Z,9.85
2022-08-20T09:48:55.833Z,9.65
2022-08-20T09:51:23.278Z,8.50
2022-08-20T09:53:50.403Z,9.40
2022-08-20T09:56:17.577Z,9.45
2022-08-20T09:58:53.005Z,9.93
2022-08-20T10:01:21.753Z,8.43
2022-08-20T10:03:49.720Z,9.73
2022-08-20T10:06:20.497Z,8.38
2022-08-20T10:08:48.586Z,9.27
2022-08-20T10:11:15.820Z,9.05
2022-08-20T10:13:45.087Z,8.60
2022-08-20T10:16:11.971Z,8.63
2022-08-20T10:18:38.865Z,8.60
2022-08-20T10:21:12.581Z,8.27
2022-08-20T10:23:39.649Z,8.13
2022-08-20T10:26:08.706Z,8.80
2022-08-20T10:28:35.796Z,8.80
2022-08-20T10:31:04.728Z,8.00
2022-08-20T10:33:31.576Z,8.73
2022-08-20T10:36:05.564Z,9.05
2022-08-20T10:38:32.422Z,9.80
2022-08-20T10:40:59.320Z,8.98
2022-08-20T10:43:26.258Z,8.73
2022-08-20T10:45:53.131Z,8.48
2022-08-20T10:48:21.699Z,8.50
2022-08-20T10:50:49.798Z,9.18
2022-08-20T10:53:17.055Z,9.27
2022-08-20T10:55:44.234Z,8.63
2022-08-20T10:58:13.207Z,9.70
2022-08-20T11:00:41.280Z,8.25
2022-08-20T11:03:08.457Z,9.82
2022-08-20T11:05:35.433Z,8.95
2022-08-20T11:08:04.414Z,9.38
2022-08-20T11:10:34.151Z,9.68
2022-08-20T11:13:05.480Z,9.60
2022-08-20T11:15:41.707Z,10.00
2022-08-20T11:18:09.337Z,11.18
2022-08-20T11:20:36.578Z,10.68
2022-08-20T11:23:03.964Z,9.70
2022-08-20T11:25:31.181Z,11.13
2022-08-20T11:27:58.719Z,10.23
2022-08-20T11:30:31.921Z,11.02
2022-08-20T11:33:00.405Z,11.07
2022-08-20T11:35:49.381Z,11.40
2022-08-20T11:38:17.381Z,10.70
2022-08-20T11:40:44.363Z,11.35
2022-08-20T11:43:16.437Z,11.55
2022-08-20T11:45:46.446Z,11.70
2022-08-20T11:52:01.281Z,11.95
2022-08-20T11:54:29.687Z,12.05
2022-08-20T11:56:58.044Z,12.60
2022-08-20T11:59:26.066Z,12.20
2022-08-20T12:02:03.201Z,12.05
2022-08-20T12:04:33.396Z,12.93
2022-08-20T12:07:09.331Z,13.23
2022-08-20T12:09:36.294Z,13.93
2022-08-20T12:12:08.711Z,14.15
2022-08-20T12:14:37.148Z,13.68
2022-08-20T12:17:21.407Z,14.75
2022-08-20T12:19:48.405Z,14.13
2022-08-20T12:22:24.530Z,11.70
2022-08-20T12:24:53.669Z,18.27
2022-08-20T12:27:24.585Z,18.25
2022-08-20T12:29:53.364Z,20.98
2022-08-20T12:32:22.147Z,20.15
2022-08-20T12:34:49.525Z,19.65
2022-08-20T12:37:19.495Z,20.98
2022-08-20T12:39:49.198Z,20.52
2022-08-20T12:42:16.629Z,20.27
2022-08-20T12:44:44.035Z,20.40
2022-08-20T12:47:18.789Z,19.30
2022-08-20T12:49:55.784Z,20.38
2022-08-20T12:52:25.031Z,19.90
2022-08-20T12:54:52.346Z,20.95
2022-08-20T12:57:32.663Z,21.00
2022-08-20T13:00:05.299Z,21.80
2022-08-20T13:02:32.339Z,22.45
2022-08-20T13:05:04.651Z,23.60
2022-08-20T13:07:33.438Z,22.50
2022-08-20T13:14:00.588Z,22.95
2022-08-20T13:16:27.598Z,24.17
2022-08-20T13:18:54.518Z,25.17
2022-08-20T13:21:23.973Z,24.98
2022-08-20T13:23:51.329Z,25.02
2022-08-20T13:26:18.233Z,25.83
2022-08-20T13:28:45.239Z,25.50
2022-08-20T13:31:12.122Z,25.45
2022-08-20T13:33:39.717Z,24.63
2022-08-20T13:36:06.805Z,24.90
2022-08-20T13:38:33.674Z,23.73
2022-08-20T13:41:00.579Z,24.55
2022-08-20T13:43:27.451Z,25.27
2022-08-20T13:45:54.349Z,28.65
2022-08-20T13:48:21.277Z,31.08
2022-08-20T13:50:48.165Z,33.58
2022-08-20T13:53:15.737Z,35.33
2022-08-20T13:55:42.641Z,38.33
2022-08-20T13:58:09.580Z,35.72
2022-08-20T14:00:36.859Z,32.00
2022-08-20T14:03:05.865Z,29.90
2022-08-20T14:05:34.139Z,28.27
2022-08-20T14:08:13.501Z,27.60
2022-08-20T14:10:42.624Z,30.38
2022-08-20T14:13:14.628Z,34.15
2022-08-20T14:15:42.963Z,34.03
2022-08-20T14:18:09.938Z,35.20
2022-08-20T14:20:38.014Z,35.13
2022-08-20T14:23:05.627Z,35.38
2022-08-20T14:25:32.729Z,36.35
2022-08-20T14:28:08.433Z,36.28
2022-08-20T14:30:35.881Z,33.55
2022-08-20T14:33:02.724Z,32.50
2022-08-20T14:35:29.598Z,34.70
2022-08-20T14:37:58.220Z,34.88
2022-08-20T14:40:26.974Z,34.75
2022-08-20T14:42:54.971Z,34.20
2022-08-20T14:45:22.709Z,35.45
2022-08-20T14:47:54.157Z,36.15
2022-08-20T14:50:23.595Z,31.35
2022-08-20T14:52:50.662Z,32.17
2022-08-20T14:55:20.211Z,29.45
2022-08-20T14:57:47.587Z,31.40
2022-08-20T15:00:25.615Z,32.10
2022-08-20T15:02:52.726Z,29.67
2022-08-20T15:05:19.863Z,28.30
2022-08-20T15:07:49.252Z,28.30
2022-08-20T15:10:22.593Z,29.40
2022-08-20T15:12:49.831Z,29.27
2022-08-20T15:15:18.468Z,26.10
2022-08-20T15:17:48.588Z,24.42
2022-08-20T15:20:20.142Z,26.38
2022-08-20T15:22:48.429Z,24.38
2022-08-20T15:25:18.621Z,22.27
2022-08-20T15:27:46.297Z,25.15
2022-08-20T15:30:16.834Z,22.27
2022-08-20T15:32:43.909Z,22.20
2022-08-20T15:35:13.268Z,24.25
2022-08-20T15:37:47.756Z,21.17
2022-08-20T15:40:18.596Z,21.30
2022-08-20T15:42:46.689Z,21.70
2022-08-20T15:45:21.889Z,21.90
2022-08-20T15:51:35.234Z,23.17
2022-08-20T15:54:04.127Z,21.40
2022-08-20T15:56:33.844Z,22.50
2022-08-20T15:59:19.857Z,22.58
2022-08-20T16:02:25.099Z,21.88
2022-08-20T16:05:04.312Z,21.60
2022-08-20T16:07:48.960Z,22.27
2022-08-20T16:10:35.922Z,19.80
2022-08-20T16:13:08.451Z,20.23
2022-08-20T16:15:45.111Z,19.48
2022-08-20T16:18:22.497Z,20.60
2022-08-20T16:20:53.234Z,19.90
2022-08-20T16:23:25.337Z,18.95
2022-08-20T16:25:59.141Z,19.45
2022-08-20T16:31:05.600Z,20.02
2022-08-20T16:33:45.170Z,19.60
2022-08-20T16:36:38.832Z,19.33
2022-08-20T16:39:11.115Z,19.40
2022-08-20T16:41:47.523Z,19.42
2022-08-20T16:44:32.439Z,18.83
2022-08-20T16:47:22.217Z,19.33
2022-08-20T16:50:16.976Z,22.48
2022-08-20T16:52:46.129Z,22.70
2022-08-20T16:55:14.218Z,21.55
2022-08-20T16:57:41.239Z,21.63
2022-08-20T17:00:13.375Z,22.67
2022-08-20T17:03:03.131Z,21.98
2022-08-20T17:05:39.026Z,23.02
2022-08-20T17:08:08.755Z,22.63
2022-08-20T17:10:57.294Z,23.20
2022-08-20T17:13:33.670Z,22.48
2022-08-20T17:16:08.767Z,22.60
2022-08-20T17:18:38.481Z,23.13
2022-08-20T17:21:13.541Z,22.55
2022-08-20T17:23:55.882Z,22.67
2022-08-20T17:26:25.721Z,22.98
2022-08-20T17:28:55.132Z,23.10
2022-08-20T17:31:39.133Z,25.40
2022-08-20T17:34:12.964Z,23.95
2022-08-20T17:36:52.864Z,24.20
2022-08-20T17:39:20.984Z,25.65
2022-08-20T17:41:50.869Z,28.02
2022-08-20T17:44:33.570Z,28.13
2022-08-20T17:47:04.807Z,28.50
2022-08-20T17:49:36.368Z,27.33
2022-08-20T17:52:06.056Z,27.88
2022-08-20T17:54:39.363Z,29.27
2022-08-20T17:57:12.552Z,29.25
2022-08-20T18:00:01.356Z,30.77
2022-08-20T18:02:29.932Z,29.00
2022-08-20T18:04:56.974Z,31.23
2022-08-20T18:07:42.742Z,31.70
2022-08-20T18:10:20.209Z,31.73
2022-08-20T18:13:06.215Z,32.08
2022-08-20T18:15:44.137Z,32.75
2022-08-20T18:18:30.553Z,32.35
2022-08-20T18:21:20.565Z,31.40
2022-08-20T18:23:58.727Z,32.47
2022-08-20T18:26:42.245Z,31.00
2022-08-20T18:29:17.084Z,28.75
2022-08-20T18:31:50.085Z,28.27
2022-08-20T18:34:20.397Z,31.17
2022-08-20T18:37:06.318Z,29.42
2022-08-20T18:39:36.080Z,30.00
2022-08-20T18:42:09.795Z,30.83
2022-08-20T18:44:46.015Z,28.48
2022-08-20T18:47:24.576Z,30.15
2022-08-20T18:50:16.897Z,29.92
2022-08-20T18:52:47.559Z,27.95
2022-08-20T18:55:48.301Z,27.95
2022-08-20T18:58:32.676Z,30.02
2022-08-20T19:03:37.115Z,29.55
2022-08-20T19:06:35.456Z,29.70
2022-08-20T19:09:34.515Z,30.17
2022-08-20T19:12:26.097Z,28.38
2022-08-20T19:14:58.317Z,28.48
2022-08-20T19:17:33.223Z,29.33
2022-08-20T19:20:02.388Z,29.98
2022-08-20T19:22:29.795Z,30.05
2022-08-20T19:24:58.788Z,29.55
2022-08-20T19:27:28.487Z,31.55
2022-08-20T19:29:57.175Z,29.88
2022-08-20T19:32:32.713Z,31.33
2022-08-20T19:35:02.679Z,31.05
2022-08-20T19:37:38.559Z,31.45
2022-08-20T19:40:28.683Z,28.55
2022-08-20T19:42:59.456Z,28.35
2022-08-20T19:45:30.828Z,28.60
2022-08-20T19:48:16.603Z,28.90
2022-08-20T19:51:10.624Z,27.70
2022-08-20T19:53:45.816Z,28.08
2022-08-20T19:56:12.649Z,28.05
2022-08-20T19:58:40.007Z,30.40
2022-08-20T20:01:20.027Z,29.10
2022-08-20T20:03:59.848Z,30.67
2022-08-20T20:06:27.964Z,32.88
2022-08-20T20:09:01.305Z,34.25
2022-08-20T20:11:36.130Z,35.17
2022-08-20T20:14:09.370Z,37.42
2022-08-20T20:16:38.785Z,36.67
2022-08-20T20:19:25.889Z,38.92
2022-08-20T20:22:24.339Z,39.55
2022-08-20T20:25:07.634Z,39.22
2022-08-20T20:27:36.563Z,38.60
2022-08-20T20:30:11.035Z,36.42
2022-08-20T20:36:41.832Z,41.88
2022-08-20T20:39:28.140Z,38.27
2022-08-20T20:41:58.963Z,38.47
2022-08-20T20:44:37.288Z,37.35
2022-08-20T20:47:07.772Z,39.25
2022-08-20T20:49:50.395Z,37.78
2022-08-20T20:52:25.783Z,38.70
2022-08-20T20:55:09.998Z,37.88
2022-08-20T20:57:38.740Z,37.20
2022-08-20T21:00:17.431Z,36.47
2022-08-20T21:02:47.512Z,37.88
2022-08-20T21:05:17.938Z,36.47
2022-08-20T21:07:50.505Z,35.95
2022-08-20T21:10:19.906Z,35.97
2022-08-20T21:12:51.912Z,36.72
2022-08-20T21:19:08.675Z,37.33
2022-08-20T21:25:24.012Z,36.47
2022-08-20T21:27:52.830Z,36.67
2022-08-20T21:30:21.580Z,36.25
2022-08-20T21:32:49.208Z,35.47
2022-08-20T21:35:16.627Z,36.08
2022-08-20T21:37:43.908Z,33.42
2022-08-20T21:40:12.606Z,35.40
2022-08-20T21:42:41.150Z,34.50
2022-08-20T21:45:14.919Z,35.28
2022-08-20T21:47:48.671Z,35.50
2022-08-20T21:50:18.949Z,34.25
2022-08-20T21:52:59.407Z,33.75
2022-08-20T21:55:28.304Z,33.60
2022-08-20T21:57:55.321Z,33.53
2022-08-20T22:00:55.516Z,33.63
2022-08-20T22:03:25.698Z,33.00
2022-08-20T22:05:53.678Z,32.42
2022-08-20T22:08:21.342Z,31.75
2022-08-20T22:10:54.358Z,31.00
2022-08-20T22:13:23.226Z,31.02
2022-08-20T22:15:50.126Z,31.63
2022-08-20T22:18:17.956Z,29.20
2022-08-20T22:20:45.528Z,30.13
2022-08-20T22:23:12.595Z,27.77
2022-08-20T22:25:40.775Z,28.20
2022-08-20T22:28:08.301Z,27.17
2022-08-20T22:30:39.431Z,27.38
2022-08-20T22:33:13.667Z,27.38
2022-08-20T22:35:45.555Z,26.95
2022-08-20T22:38:12.929Z,28.85
2022-08-20T22:40:39.836Z,26.73
2022-08-20T22:43:07.000Z,3.75
2022-08-20T22:45:34.018Z,1.80
2022-08-20T22:48:01.541Z,2.03
2022-08-20T22:50:28.943Z,3.08
2022-08-20T22:52:55.937Z,2.88
2022-08-20T22:55:22.906Z,3.50
2022-08-20T22:57:49.779Z,1.90
2022-08-20T23:00:19.186Z,1.95
2022-08-20T23:02:55.006Z,1.67
2022-08-20T23:05:23.852Z,1.98
2022-08-20T23:07:54.133Z,1.98
2022-08-20T23:10:22.120Z,2.03
2022-08-20T23:12:48.998Z,2.67
2022-08-20T23:15:16.222Z,3.88
2022-08-20T23:17:43.390Z,2.60
2022-08-20T23:20:14.148Z,0.95
2022-08-20T23:22:41.217Z,1.60
2022-08-20T23:25:09.642Z,2.35
2022-08-20T23:27:43.651Z,1.77
2022-08-20T23:32:38.198Z,1.13
2022-08-20T23:35:06.370Z,2.00
2022-08-20T23:37:37.708Z,0.90
2022-08-20T23:40:05.588Z,3.08
2022-08-20T23:42:32.600Z,1.95
2022-08-20T23:44:59.871Z,2.08
2022-08-20T23:47:27.388Z,1.40
2022-08-20T23:49:54.522Z,1.63
2022-08-20T23:52:21.424Z,1.70
2022-08-20T23:54:48.341Z,1.48
2022-08-20T23:57:15.825Z,0.52
2022-08-20T23:59:48.383Z,0.60
